sensor_id;sensor_type;location;lat;lon;timestamp;P1;P2;P0
84223;PMS5003;74353;51.208;0.304;2024-02-16T00:01:19;21;21;
84223;PMS5003;74353;51.208;0.304;2024-02-16T00:03:45;17;17;
84223;PMS5003;74353;51.208;0.304;2024-02-16T00:06:12;15;15;
84223;PMS5003;74353;51.208;0.304;2024-02-16T00:08:37;17;17;
84223;PMS5003;74353;51.208;0.304;2024-02-16T00:11:07;20;12;
84223;PMS5003;74353;51.208;0.304;2024-02-16T00:13:32;16;14;
84223;PMS5003;74353;51.208;0.304;2024-02-16T00:15:58;17;17;
84223;PMS5003;74353;51.208;0.304;2024-02-16T00:18:24;16;16;
84223;PMS5003;74353;51.208;0.304;2024-02-16T00:20:50;27;24;
84223;PMS5003;74353;51.208;0.304;2024-02-16T00:23:15;18;18;
84223;PMS5003;74353;51.208;0.304;2024-02-16T00:25:40;17;17;
84223;PMS5003;74353;51.208;0.304;2024-02-16T00:28:06;10;10;
84223;PMS5003;74353;51.208;0.304;2024-02-16T00:30:32;15;15;
84223;PMS5003;74353;51.208;0.304;2024-02-16T00:32:58;17;14;
84223;PMS5003;74353;51.208;0.304;2024-02-16T00:35:23;18;17;
84223;PMS5003;74353;51.208;0.304;2024-02-16T00:37:52;12;12;
84223;PMS5003;74353;51.208;0.304;2024-02-16T00:40:18;33;33;
84223;PMS5003;74353;51.208;0.304;2024-02-16T00:42:44;13;13;
84223;PMS5003;74353;51.208;0.304;2024-02-16T00:45:14;8;8;
84223;PMS5003;74353;51.208;0.304;2024-02-16T00:47:41;18;18;
84223;PMS5003;74353;51.208;0.304;2024-02-16T00:50:07;19;18;
84223;PMS5003;74353;51.208;0.304;2024-02-16T00:52:35;11;11;
84223;PMS5003;74353;51.208;0.304;2024-02-16T00:55:02;22;22;
84223;PMS5003;74353;51.208;0.304;2024-02-16T00:57:28;12;12;
84223;PMS5003;74353;51.208;0.304;2024-02-16T00:59:55;38;18;
84223;PMS5003;74353;51.208;0.304;2024-02-16T01:02:22;18;18;
84223;PMS5003;74353;51.208;0.304;2024-02-16T01:04:47;21;21;
84223;PMS5003;74353;51.208;0.304;2024-02-16T01:07:12;8;8;
84223;PMS5003;74353;51.208;0.304;2024-02-16T01:09:38;33;32;
84223;PMS5003;74353;51.208;0.304;2024-02-16T01:12:05;17;17;
84223;PMS5003;74353;51.208;0.304;2024-02-16T01:14:30;23;22;
84223;PMS5003;74353;51.208;0.304;2024-02-16T01:16:57;24;24;
84223;PMS5003;74353;51.208;0.304;2024-02-16T01:19:22;28;24;
84223;PMS5003;74353;51.208;0.304;2024-02-16T01:21:50;15;15;
84223;PMS5003;74353;51.208;0.304;2024-02-16T01:24:17;15;15;
84223;PMS5003;74353;51.208;0.304;2024-02-16T01:26:44;12;12;
84223;PMS5003;74353;51.208;0.304;2024-02-16T01:29:11;21;18;
84223;PMS5003;74353;51.208;0.304;2024-02-16T01:31:38;22;22;
84223;PMS5003;74353;51.208;0.304;2024-02-16T01:34:05;20;20;
84223;PMS5003;74353;51.208;0.304;2024-02-16T01:36:32;19;19;
84223;PMS5003;74353;51.208;0.304;2024-02-16T01:38:57;24;23;
84223;PMS5003;74353;51.208;0.304;2024-02-16T01:41:23;23;23;
84223;PMS5003;74353;51.208;0.304;2024-02-16T01:43:48;21;21;
84223;PMS5003;74353;51.208;0.304;2024-02-16T01:46:16;27;24;
84223;PMS5003;74353;51.208;0.304;2024-02-16T01:48:41;22;22;
84223;PMS5003;74353;51.208;0.304;2024-02-16T01:51:14;16;16;
84223;PMS5003;74353;51.208;0.304;2024-02-16T01:53:40;12;12;
84223;PMS5003;74353;51.208;0.304;2024-02-16T01:56:08;19;19;
84223;PMS5003;74353;51.208;0.304;2024-02-16T01:58:35;17;17;
84223;PMS5003;74353;51.208;0.304;2024-02-16T02:01:02;24;24;
84223;PMS5003;74353;51.208;0.304;2024-02-16T02:03:28;27;20;
84223;PMS5003;74353;51.208;0.304;2024-02-16T02:05:55;17;17;
84223;PMS5003;74353;51.208;0.304;2024-02-16T02:08:25;17;17;
84223;PMS5003;74353;51.208;0.304;2024-02-16T02:10:50;21;21;
84223;PMS5003;74353;51.208;0.304;2024-02-16T02:13:18;17;17;
84223;PMS5003;74353;51.208;0.304;2024-02-16T02:15:43;24;22;
84223;PMS5003;74353;51.208;0.304;2024-02-16T02:18:12;22;21;
84223;PMS5003;74353;51.208;0.304;2024-02-16T02:20:37;14;14;
84223;PMS5003;74353;51.208;0.304;2024-02-16T02:23:03;17;17;
84223;PMS5003;74353;51.208;0.304;2024-02-16T02:25:29;17;17;
84223;PMS5003;74353;51.208;0.304;2024-02-16T02:27:54;10;10;
84223;PMS5003;74353;51.208;0.304;2024-02-16T02:30:20;17;17;
84223;PMS5003;74353;51.208;0.304;2024-02-16T02:32:49;16;16;
84223;PMS5003;74353;51.208;0.304;2024-02-16T02:35:15;27;12;
84223;PMS5003;74353;51.208;0.304;2024-02-16T02:37:39;17;17;
84223;PMS5003;74353;51.208;0.304;2024-02-16T02:40:07;17;17;
84223;PMS5003;74353;51.208;0.304;2024-02-16T02:42:33;14;13;
84223;PMS5003;74353;51.208;0.304;2024-02-16T02:44:59;15;15;
84223;PMS5003;74353;51.208;0.304;2024-02-16T02:47:24;20;20;
84223;PMS5003;74353;51.208;0.304;2024-02-16T02:49:49;19;17;
84223;PMS5003;74353;51.208;0.304;2024-02-16T02:52:16;17;17;
84223;PMS5003;74353;51.208;0.304;2024-02-16T02:54:42;26;26;
84223;PMS5003;74353;51.208;0.304;2024-02-16T02:57:08;30;24;
84223;PMS5003;74353;51.208;0.304;2024-02-16T02:59:33;22;21;
84223;PMS5003;74353;51.208;0.304;2024-02-16T03:01:59;23;20;
84223;PMS5003;74353;51.208;0.304;2024-02-16T03:04:25;15;15;
84223;PMS5003;74353;51.208;0.304;2024-02-16T03:06:53;19;19;
84223;PMS5003;74353;51.208;0.304;2024-02-16T03:09:21;17;17;
84223;PMS5003;74353;51.208;0.304;2024-02-16T03:11:49;11;11;
84223;PMS5003;74353;51.208;0.304;2024-02-16T03:14:16;15;15;
84223;PMS5003;74353;51.208;0.304;2024-02-16T03:16:41;7;7;
84223;PMS5003;74353;51.208;0.304;2024-02-16T03:19:07;29;23;
84223;PMS5003;74353;51.208;0.304;2024-02-16T03:21:34;18;18;
84223;PMS5003;74353;51.208;0.304;2024-02-16T03:24:00;12;12;
84223;PMS5003;74353;51.208;0.304;2024-02-16T03:26:28;17;17;
84223;PMS5003;74353;51.208;0.304;2024-02-16T03:28:55;17;17;
84223;PMS5003;74353;51.208;0.304;2024-02-16T03:31:22;15;15;
84223;PMS5003;74353;51.208;0.304;2024-02-16T03:33:47;16;16;
84223;PMS5003;74353;51.208;0.304;2024-02-16T03:36:16;15;15;
84223;PMS5003;74353;51.208;0.304;2024-02-16T03:38:41;18;18;
84223;PMS5003;74353;51.208;0.304;2024-02-16T03:41:09;18;18;
84223;PMS5003;74353;51.208;0.304;2024-02-16T03:43:34;19;19;
84223;PMS5003;74353;51.208;0.304;2024-02-16T03:46:02;18;18;
84223;PMS5003;74353;51.208;0.304;2024-02-16T03:48:27;18;18;
84223;PMS5003;74353;51.208;0.304;2024-02-16T03:50:54;11;11;
84223;PMS5003;74353;51.208;0.304;2024-02-16T03:53:19;15;15;
84223;PMS5003;74353;51.208;0.304;2024-02-16T03:55:47;11;11;
84223;PMS5003;74353;51.208;0.304;2024-02-16T03:58:12;21;21;
84223;PMS5003;74353;51.208;0.304;2024-02-16T04:00:38;16;16;
84223;PMS5003;74353;51.208;0.304;2024-02-16T04:03:05;11;11;
84223;PMS5003;74353;51.208;0.304;2024-02-16T04:05:32;11;11;
84223;PMS5003;74353;51.208;0.304;2024-02-16T04:07:58;18;18;
84223;PMS5003;74353;51.208;0.304;2024-02-16T04:10:26;17;17;
84223;PMS5003;74353;51.208;0.304;2024-02-16T04:12:52;22;16;
84223;PMS5003;74353;51.208;0.304;2024-02-16T04:15:17;16;16;
84223;PMS5003;74353;51.208;0.304;2024-02-16T04:17:43;16;16;
84223;PMS5003;74353;51.208;0.304;2024-02-16T04:20:11;14;14;
84223;PMS5003;74353;51.208;0.304;2024-02-16T04:22:37;22;16;
84223;PMS5003;74353;51.208;0.304;2024-02-16T04:25:02;22;22;
84223;PMS5003;74353;51.208;0.304;2024-02-16T04:27:29;15;15;
84223;PMS5003;74353;51.208;0.304;2024-02-16T04:29:55;22;19;
84223;PMS5003;74353;51.208;0.304;2024-02-16T04:32:20;20;18;
84223;PMS5003;74353;51.208;0.304;2024-02-16T04:34:45;20;20;
84223;PMS5003;74353;51.208;0.304;2024-02-16T04:37:12;18;18;
84223;PMS5003;74353;51.208;0.304;2024-02-16T04:39:38;13;13;
84223;PMS5003;74353;51.208;0.304;2024-02-16T04:42:04;17;17;
84223;PMS5003;74353;51.208;0.304;2024-02-16T04:44:29;16;16;
84223;PMS5003;74353;51.208;0.304;2024-02-16T04:46:55;13;13;
84223;PMS5003;74353;51.208;0.304;2024-02-16T04:49:22;21;21;
84223;PMS5003;74353;51.208;0.304;2024-02-16T04:51:48;19;19;
84223;PMS5003;74353;51.208;0.304;2024-02-16T04:54:13;24;24;
84223;PMS5003;74353;51.208;0.304;2024-02-16T04:56:40;14;14;
84223;PMS5003;74353;51.208;0.304;2024-02-16T04:59:06;24;23;
84223;PMS5003;74353;51.208;0.304;2024-02-16T05:01:33;11;11;
84223;PMS5003;74353;51.208;0.304;2024-02-16T05:04:07;7;7;
84223;PMS5003;74353;51.208;0.304;2024-02-16T05:06:38;12;12;
84223;PMS5003;74353;51.208;0.304;2024-02-16T05:08:59;14;13;
84223;PMS5003;74353;51.208;0.304;2024-02-16T05:11:27;15;15;
84223;PMS5003;74353;51.208;0.304;2024-02-16T05:13:52;17;17;
84223;PMS5003;74353;51.208;0.304;2024-02-16T05:16:20;19;19;
84223;PMS5003;74353;51.208;0.304;2024-02-16T05:18:46;25;18;
84223;PMS5003;74353;51.208;0.304;2024-02-16T05:21:13;11;11;
84223;PMS5003;74353;51.208;0.304;2024-02-16T05:23:38;19;19;
84223;PMS5003;74353;51.208;0.304;2024-02-16T05:26:06;13;13;
84223;PMS5003;74353;51.208;0.304;2024-02-16T05:28:32;22;22;
84223;PMS5003;74353;51.208;0.304;2024-02-16T05:30:59;15;15;
84223;PMS5003;74353;51.208;0.304;2024-02-16T05:33:25;12;12;
84223;PMS5003;74353;51.208;0.304;2024-02-16T05:35:51;17;17;
84223;PMS5003;74353;51.208;0.304;2024-02-16T05:38:17;12;12;
84223;PMS5003;74353;51.208;0.304;2024-02-16T05:40:42;11;11;
84223;PMS5003;74353;51.208;0.304;2024-02-16T05:43:09;20;20;
84223;PMS5003;74353;51.208;0.304;2024-02-16T05:45:37;10;10;
84223;PMS5003;74353;51.208;0.304;2024-02-16T05:48:04;15;15;
84223;PMS5003;74353;51.208;0.304;2024-02-16T05:50:29;6;6;
84223;PMS5003;74353;51.208;0.304;2024-02-16T05:52:55;13;7;
84223;PMS5003;74353;51.208;0.304;2024-02-16T05:55:22;13;13;
84223;PMS5003;74353;51.208;0.304;2024-02-16T05:57:47;18;18;
84223;PMS5003;74353;51.208;0.304;2024-02-16T06:00:13;12;12;
84223;PMS5003;74353;51.208;0.304;2024-02-16T06:02:38;15;12;
84223;PMS5003;74353;51.208;0.304;2024-02-16T06:05:04;20;19;
84223;PMS5003;74353;51.208;0.304;2024-02-16T06:07:29;14;14;
84223;PMS5003;74353;51.208;0.304;2024-02-16T06:09:54;8;8;
84223;PMS5003;74353;51.208;0.304;2024-02-16T06:12:19;14;14;
84223;PMS5003;74353;51.208;0.304;2024-02-16T06:14:46;11;11;
84223;PMS5003;74353;51.208;0.304;2024-02-16T06:17:17;11;11;
84223;PMS5003;74353;51.208;0.304;2024-02-16T06:19:37;15;15;
84223;PMS5003;74353;51.208;0.304;2024-02-16T06:22:03;14;14;
84223;PMS5003;74353;51.208;0.304;2024-02-16T06:24:31;7;7;
84223;PMS5003;74353;51.208;0.304;2024-02-16T06:26:58;10;10;
84223;PMS5003;74353;51.208;0.304;2024-02-16T06:29:24;6;6;
84223;PMS5003;74353;51.208;0.304;2024-02-16T06:31:49;6;6;
84223;PMS5003;74353;51.208;0.304;2024-02-16T06:34:17;4;4;
84223;PMS5003;74353;51.208;0.304;2024-02-16T06:36:42;5;5;
84223;PMS5003;74353;51.208;0.304;2024-02-16T06:39:11;4;4;
84223;PMS5003;74353;51.208;0.304;2024-02-16T06:41:37;6;6;
84223;PMS5003;74353;51.208;0.304;2024-02-16T06:44:05;3;3;
84223;PMS5003;74353;51.208;0.304;2024-02-16T06:46:32;2;2;
84223;PMS5003;74353;51.208;0.304;2024-02-16T06:48:58;3;3;
84223;PMS5003;74353;51.208;0.304;2024-02-16T06:51:23;5;5;
84223;PMS5003;74353;51.208;0.304;2024-02-16T06:53:49;4;4;
84223;PMS5003;74353;51.208;0.304;2024-02-16T06:56:14;5;4;
84223;PMS5003;74353;51.208;0.304;2024-02-16T06:58:39;4;4;
84223;PMS5003;74353;51.208;0.304;2024-02-16T07:01:05;4;4;
84223;PMS5003;74353;51.208;0.304;2024-02-16T07:03:31;4;4;
84223;PMS5003;74353;51.208;0.304;2024-02-16T07:05:57;3;3;
84223;PMS5003;74353;51.208;0.304;2024-02-16T07:08:22;4;4;
84223;PMS5003;74353;51.208;0.304;2024-02-16T07:10:47;0;0;
84223;PMS5003;74353;51.208;0.304;2024-02-16T07:13:15;0;0;
84223;PMS5003;74353;51.208;0.304;2024-02-16T07:15:41;3;3;
84223;PMS5003;74353;51.208;0.304;2024-02-16T07:18:07;3;3;
84223;PMS5003;74353;51.208;0.304;2024-02-16T07:20:34;2;2;
84223;PMS5003;74353;51.208;0.304;2024-02-16T07:22:59;3;3;
84223;PMS5003;74353;51.208;0.304;2024-02-16T07:25:29;3;3;
84223;PMS5003;74353;51.208;0.304;2024-02-16T07:27:53;3;2;
84223;PMS5003;74353;51.208;0.304;2024-02-16T07:30:19;2;2;
84223;PMS5003;74353;51.208;0.304;2024-02-16T07:32:48;2;2;
84223;PMS5003;74353;51.208;0.304;2024-02-16T07:35:15;6;6;
84223;PMS5003;74353;51.208;0.304;2024-02-16T07:37:45;4;3;
84223;PMS5003;74353;51.208;0.304;2024-02-16T07:40:06;2;2;
84223;PMS5003;74353;51.208;0.304;2024-02-16T07:42:31;2;2;
84223;PMS5003;74353;51.208;0.304;2024-02-16T07:44:57;1;1;
84223;PMS5003;74353;51.208;0.304;2024-02-16T07:47:25;0;0;
84223;PMS5003;74353;51.208;0.304;2024-02-16T07:49:51;2;2;
84223;PMS5003;74353;51.208;0.304;2024-02-16T07:52:16;3;3;
84223;PMS5003;74353;51.208;0.304;2024-02-16T07:54:44;7;7;
84223;PMS5003;74353;51.208;0.304;2024-02-16T07:57:10;5;5;
84223;PMS5003;74353;51.208;0.304;2024-02-16T07:59:36;7;7;
84223;PMS5003;74353;51.208;0.304;2024-02-16T08:02:05;4;4;
84223;PMS5003;74353;51.208;0.304;2024-02-16T08:04:32;5;5;
84223;PMS5003;74353;51.208;0.304;2024-02-16T08:07:02;13;13;
84223;PMS5003;74353;51.208;0.304;2024-02-16T08:09:27;10;10;
84223;PMS5003;74353;51.208;0.304;2024-02-16T08:11:53;6;6;
84223;PMS5003;74353;51.208;0.304;2024-02-16T08:14:21;3;3;
84223;PMS5003;74353;51.208;0.304;2024-02-16T08:16:48;7;7;
84223;PMS5003;74353;51.208;0.304;2024-02-16T08:19:14;8;7;
84223;PMS5003;74353;51.208;0.304;2024-02-16T08:21:40;4;4;
84223;PMS5003;74353;51.208;0.304;2024-02-16T08:24:06;3;3;
84223;PMS5003;74353;51.208;0.304;2024-02-16T08:26:31;1;1;
84223;PMS5003;74353;51.208;0.304;2024-02-16T08:28:59;0;0;
84223;PMS5003;74353;51.208;0.304;2024-02-16T08:31:26;3;3;
84223;PMS5003;74353;51.208;0.304;2024-02-16T08:33:51;4;4;
84223;PMS5003;74353;51.208;0.304;2024-02-16T08:36:17;2;2;
84223;PMS5003;74353;51.208;0.304;2024-02-16T08:38:44;3;3;
84223;PMS5003;74353;51.208;0.304;2024-02-16T08:41:12;3;3;
84223;PMS5003;74353;51.208;0.304;2024-02-16T08:43:37;3;3;
84223;PMS5003;74353;51.208;0.304;2024-02-16T08:46:02;4;4;
84223;PMS5003;74353;51.208;0.304;2024-02-16T08:48:30;3;3;
84223;PMS5003;74353;51.208;0.304;2024-02-16T08:50:56;2;2;
84223;PMS5003;74353;51.208;0.304;2024-02-16T08:53:21;2;2;
84223;PMS5003;74353;51.208;0.304;2024-02-16T08:55:49;3;3;
84223;PMS5003;74353;51.208;0.304;2024-02-16T08:58:16;3;3;
84223;PMS5003;74353;51.208;0.304;2024-02-16T09:00:45;1;1;
84223;PMS5003;74353;51.208;0.304;2024-02-16T09:03:10;6;6;
84223;PMS5003;74353;51.208;0.304;2024-02-16T09:05:35;5;5;
84223;PMS5003;74353;51.208;0.304;2024-02-16T09:08:00;7;7;
84223;PMS5003;74353;51.208;0.304;2024-02-16T09:10:27;6;6;
84223;PMS5003;74353;51.208;0.304;2024-02-16T09:12:53;2;2;
84223;PMS5003;74353;51.208;0.304;2024-02-16T09:15:18;4;4;
84223;PMS5003;74353;51.208;0.304;2024-02-16T09:17:44;4;4;
84223;PMS5003;74353;51.208;0.304;2024-02-16T09:20:12;4;4;
84223;PMS5003;74353;51.208;0.304;2024-02-16T09:22:40;2;2;
84223;PMS5003;74353;51.208;0.304;2024-02-16T09:25:03;3;3;
84223;PMS5003;74353;51.208;0.304;2024-02-16T09:27:29;1;1;
84223;PMS5003;74353;51.208;0.304;2024-02-16T09:29:54;5;3;
84223;PMS5003;74353;51.208;0.304;2024-02-16T09:32:20;7;4;
84223;PMS5003;74353;51.208;0.304;2024-02-16T09:34:45;6;6;
84223;PMS5003;74353;51.208;0.304;2024-02-16T09:37:15;3;3;
84223;PMS5003;74353;51.208;0.304;2024-02-16T09:39:41;5;4;
84223;PMS5003;74353;51.208;0.304;2024-02-16T09:42:09;2;2;
84223;PMS5003;74353;51.208;0.304;2024-02-16T09:44:35;4;4;
84223;PMS5003;74353;51.208;0.304;2024-02-16T09:47:00;14;3;
84223;PMS5003;74353;51.208;0.304;2024-02-16T09:49:26;4;4;
84223;PMS5003;74353;51.208;0.304;2024-02-16T09:51:51;5;5;
84223;PMS5003;74353;51.208;0.304;2024-02-16T09:54:18;6;6;
84223;PMS5003;74353;51.208;0.304;2024-02-16T09:56:43;4;4;
84223;PMS5003;74353;51.208;0.304;2024-02-16T09:59:12;8;8;
84223;PMS5003;74353;51.208;0.304;2024-02-16T10:01:37;7;7;
84223;PMS5003;74353;51.208;0.304;2024-02-16T10:04:06;4;4;
84223;PMS5003;74353;51.208;0.304;2024-02-16T10:06:28;6;6;
84223;PMS5003;74353;51.208;0.304;2024-02-16T10:08:54;4;4;
84223;PMS5003;74353;51.208;0.304;2024-02-16T10:11:20;5;5;
84223;PMS5003;74353;51.208;0.304;2024-02-16T10:13:54;9;9;
84223;PMS5003;74353;51.208;0.304;2024-02-16T10:16:13;4;4;
84223;PMS5003;74353;51.208;0.304;2024-02-16T10:18:39;12;5;
84223;PMS5003;74353;51.208;0.304;2024-02-16T10:21:04;7;7;
84223;PMS5003;74353;51.208;0.304;2024-02-16T10:23:30;4;4;
84223;PMS5003;74353;51.208;0.304;2024-02-16T10:25:58;3;3;
84223;PMS5003;74353;51.208;0.304;2024-02-16T10:28:24;7;7;
84223;PMS5003;74353;51.208;0.304;2024-02-16T10:30:51;4;4;
84223;PMS5003;74353;51.208;0.304;2024-02-16T10:33:17;6;6;
84223;PMS5003;74353;51.208;0.304;2024-02-16T10:35:42;7;7;
84223;PMS5003;74353;51.208;0.304;2024-02-16T10:38:09;5;5;
84223;PMS5003;74353;51.208;0.304;2024-02-16T10:40:36;8;8;
84223;PMS5003;74353;51.208;0.304;2024-02-16T10:43:03;5;5;
84223;PMS5003;74353;51.208;0.304;2024-02-16T10:45:30;5;5;
84223;PMS5003;74353;51.208;0.304;2024-02-16T10:47:57;7;3;
84223;PMS5003;74353;51.208;0.304;2024-02-16T10:50:25;5;5;
84223;PMS5003;74353;51.208;0.304;2024-02-16T10:52:51;7;7;
84223;PMS5003;74353;51.208;0.304;2024-02-16T10:55:17;5;5;
84223;PMS5003;74353;51.208;0.304;2024-02-16T10:57:45;3;3;
84223;PMS5003;74353;51.208;0.304;2024-02-16T11:00:11;4;4;
84223;PMS5003;74353;51.208;0.304;2024-02-16T11:02:51;3;3;
84223;PMS5003;74353;51.208;0.304;2024-02-16T11:05:07;0;0;
84223;PMS5003;74353;51.208;0.304;2024-02-16T11:07:36;6;6;
84223;PMS5003;74353;51.208;0.304;2024-02-16T11:10:05;2;2;
84223;PMS5003;74353;51.208;0.304;2024-02-16T11:12:33;4;3;
84223;PMS5003;74353;51.208;0.304;2024-02-16T11:14:56;2;2;
84223;PMS5003;74353;51.208;0.304;2024-02-16T11:17:22;2;2;
84223;PMS5003;74353;51.208;0.304;2024-02-16T11:19:46;5;5;
84223;PMS5003;74353;51.208;0.304;2024-02-16T11:22:15;5;5;
84223;PMS5003;74353;51.208;0.304;2024-02-16T11:24:42;6;6;
84223;PMS5003;74353;51.208;0.304;2024-02-16T11:27:05;4;4;
84223;PMS5003;74353;51.208;0.304;2024-02-16T11:29:31;10;6;
84223;PMS5003;74353;51.208;0.304;2024-02-16T11:31:58;4;4;
84223;PMS5003;74353;51.208;0.304;2024-02-16T11:34:26;8;8;
84223;PMS5003;74353;51.208;0.304;2024-02-16T11:36:52;6;6;
84223;PMS5003;74353;51.208;0.304;2024-02-16T11:39:17;5;5;
84223;PMS5003;74353;51.208;0.304;2024-02-16T11:41:43;8;7;
84223;PMS5003;74353;51.208;0.304;2024-02-16T11:44:08;3;3;
84223;PMS5003;74353;51.208;0.304;2024-02-16T11:46:37;5;5;
84223;PMS5003;74353;51.208;0.304;2024-02-16T11:49:05;2;2;
84223;PMS5003;74353;51.208;0.304;2024-02-16T11:51:28;8;5;
84223;PMS5003;74353;51.208;0.304;2024-02-16T11:54:00;2;2;
84223;PMS5003;74353;51.208;0.304;2024-02-16T11:56:22;7;7;
84223;PMS5003;74353;51.208;0.304;2024-02-16T11:58:52;4;4;
84223;PMS5003;74353;51.208;0.304;2024-02-16T12:01:15;2;2;
84223;PMS5003;74353;51.208;0.304;2024-02-16T12:03:43;5;5;
84223;PMS5003;74353;51.208;0.304;2024-02-16T12:06:08;3;3;
84223;PMS5003;74353;51.208;0.304;2024-02-16T12:08:33;2;2;
84223;PMS5003;74353;51.208;0.304;2024-02-16T12:10:58;4;4;
84223;PMS5003;74353;51.208;0.304;2024-02-16T12:13:26;0;0;
84223;PMS5003;74353;51.208;0.304;2024-02-16T12:15:54;0;0;
84223;PMS5003;74353;51.208;0.304;2024-02-16T12:18:20;2;2;
84223;PMS5003;74353;51.208;0.304;2024-02-16T12:23:12;1;1;
84223;PMS5003;74353;51.208;0.304;2024-02-16T12:25:37;6;5;
84223;PMS5003;74353;51.208;0.304;2024-02-16T12:28:03;2;2;
84223;PMS5003;74353;51.208;0.304;2024-02-16T12:30:29;1;1;
84223;PMS5003;74353;51.208;0.304;2024-02-16T12:32:55;4;4;
84223;PMS5003;74353;51.208;0.304;2024-02-16T12:35:22;3;3;
84223;PMS5003;74353;51.208;0.304;2024-02-16T12:37:49;1;1;
84223;PMS5003;74353;51.208;0.304;2024-02-16T12:40:15;0;0;
84223;PMS5003;74353;51.208;0.304;2024-02-16T12:42:42;3;3;
84223;PMS5003;74353;51.208;0.304;2024-02-16T12:45:07;1;1;
84223;PMS5003;74353;51.208;0.304;2024-02-16T12:47:32;2;2;
84223;PMS5003;74353;51.208;0.304;2024-02-16T12:49:58;5;3;
84223;PMS5003;74353;51.208;0.304;2024-02-16T12:52:24;1;1;
84223;PMS5003;74353;51.208;0.304;2024-02-16T12:54:53;1;1;
84223;PMS5003;74353;51.208;0.304;2024-02-16T12:57:20;0;0;
84223;PMS5003;74353;51.208;0.304;2024-02-16T12:59:48;2;2;
84223;PMS5003;74353;51.208;0.304;2024-02-16T13:02:15;0;0;
84223;PMS5003;74353;51.208;0.304;2024-02-16T13:04:42;3;3;
84223;PMS5003;74353;51.208;0.304;2024-02-16T13:07:08;3;3;
84223;PMS5003;74353;51.208;0.304;2024-02-16T13:09:36;3;3;
84223;PMS5003;74353;51.208;0.304;2024-02-16T13:12:03;3;3;
84223;PMS5003;74353;51.208;0.304;2024-02-16T13:14:28;4;4;
84223;PMS5003;74353;51.208;0.304;2024-02-16T13:16:55;0;0;
84223;PMS5003;74353;51.208;0.304;2024-02-16T13:19:23;2;2;
84223;PMS5003;74353;51.208;0.304;2024-02-16T13:21:48;1;1;
84223;PMS5003;74353;51.208;0.304;2024-02-16T13:24:15;1;1;
84223;PMS5003;74353;51.208;0.304;2024-02-16T13:26:42;2;2;
84223;PMS5003;74353;51.208;0.304;2024-02-16T13:29:08;1;1;
84223;PMS5003;74353;51.208;0.304;2024-02-16T13:31:33;1;1;
84223;PMS5003;74353;51.208;0.304;2024-02-16T13:34:02;1;1;
84223;PMS5003;74353;51.208;0.304;2024-02-16T13:36:27;1;1;
84223;PMS5003;74353;51.208;0.304;2024-02-16T13:38:53;1;1;
84223;PMS5003;74353;51.208;0.304;2024-02-16T13:41:20;2;2;
84223;PMS5003;74353;51.208;0.304;2024-02-16T13:43:46;2;2;
84223;PMS5003;74353;51.208;0.304;2024-02-16T13:46:14;2;2;
84223;PMS5003;74353;51.208;0.304;2024-02-16T13:48:40;0;0;
84223;PMS5003;74353;51.208;0.304;2024-02-16T13:51:05;5;4;
84223;PMS5003;74353;51.208;0.304;2024-02-16T13:53:30;2;2;
84223;PMS5003;74353;51.208;0.304;2024-02-16T13:55:56;1;1;
84223;PMS5003;74353;51.208;0.304;2024-02-16T13:58:22;2;2;
84223;PMS5003;74353;51.208;0.304;2024-02-16T14:00:48;3;3;
84223;PMS5003;74353;51.208;0.304;2024-02-16T14:03:14;1;1;
84223;PMS5003;74353;51.208;0.304;2024-02-16T14:05:43;0;0;
84223;PMS5003;74353;51.208;0.304;2024-02-16T14:08:09;2;2;
84223;PMS5003;74353;51.208;0.304;2024-02-16T14:10:34;5;5;
84223;PMS5003;74353;51.208;0.304;2024-02-16T14:13:03;4;4;
84223;PMS5003;74353;51.208;0.304;2024-02-16T14:15:29;2;2;
84223;PMS5003;74353;51.208;0.304;2024-02-16T14:17:54;1;1;
84223;PMS5003;74353;51.208;0.304;2024-02-16T14:20:21;1;1;
84223;PMS5003;74353;51.208;0.304;2024-02-16T14:22:49;1;1;
84223;PMS5003;74353;51.208;0.304;2024-02-16T14:25:15;1;1;
84223;PMS5003;74353;51.208;0.304;2024-02-16T14:27:41;1;1;
84223;PMS5003;74353;51.208;0.304;2024-02-16T14:30:08;0;0;
84223;PMS5003;74353;51.208;0.304;2024-02-16T14:32:33;2;2;
84223;PMS5003;74353;51.208;0.304;2024-02-16T14:35:01;0;0;
84223;PMS5003;74353;51.208;0.304;2024-02-16T14:37:26;0;0;
84223;PMS5003;74353;51.208;0.304;2024-02-16T14:39:52;0;0;
84223;PMS5003;74353;51.208;0.304;2024-02-16T14:42:20;0;0;
84223;PMS5003;74353;51.208;0.304;2024-02-16T14:44:45;1;1;
84223;PMS5003;74353;51.208;0.304;2024-02-16T14:47:10;0;0;
84223;PMS5003;74353;51.208;0.304;2024-02-16T14:49:35;0;0;
84223;PMS5003;74353;51.208;0.304;2024-02-16T14:52:05;1;1;
84223;PMS5003;74353;51.208;0.304;2024-02-16T14:54:30;1;1;
84223;PMS5003;74353;51.208;0.304;2024-02-16T14:56:57;0;0;
84223;PMS5003;74353;51.208;0.304;2024-02-16T14:59:25;0;0;
84223;PMS5003;74353;51.208;0.304;2024-02-16T15:01:51;0;0;
84223;PMS5003;74353;51.208;0.304;2024-02-16T15:04:17;0;0;
84223;PMS5003;74353;51.208;0.304;2024-02-16T15:06:42;0;0;
84223;PMS5003;74353;51.208;0.304;2024-02-16T15:09:09;0;0;
84223;PMS5003;74353;51.208;0.304;2024-02-16T15:11:35;0;0;
84223;PMS5003;74353;51.208;0.304;2024-02-16T15:14:03;0;0;
84223;PMS5003;74353;51.208;0.304;2024-02-16T15:16:29;1;1;
84223;PMS5003;74353;51.208;0.304;2024-02-16T15:18:55;0;0;
84223;PMS5003;74353;51.208;0.304;2024-02-16T15:21:22;5;0;
84223;PMS5003;74353;51.208;0.304;2024-02-16T15:23:49;1;1;
84223;PMS5003;74353;51.208;0.304;2024-02-16T15:26:17;7;0;
84223;PMS5003;74353;51.208;0.304;2024-02-16T15:28:42;0;0;
84223;PMS5003;74353;51.208;0.304;2024-02-16T15:31:09;0;0;
84223;PMS5003;74353;51.208;0.304;2024-02-16T15:33:34;1;1;
84223;PMS5003;74353;51.208;0.304;2024-02-16T15:35:59;4;4;
84223;PMS5003;74353;51.208;0.304;2024-02-16T15:38:25;1;1;
84223;PMS5003;74353;51.208;0.304;2024-02-16T15:40:50;1;1;
84223;PMS5003;74353;51.208;0.304;2024-02-16T15:43:18;1;1;
84223;PMS5003;74353;51.208;0.304;2024-02-16T15:45:45;0;0;
84223;PMS5003;74353;51.208;0.304;2024-02-16T15:48:12;1;1;
84223;PMS5003;74353;51.208;0.304;2024-02-16T15:50:38;1;1;
84223;PMS5003;74353;51.208;0.304;2024-02-16T15:53:03;4;4;
84223;PMS5003;74353;51.208;0.304;2024-02-16T15:55:29;0;0;
84223;PMS5003;74353;51.208;0.304;2024-02-16T15:57:56;4;4;
84223;PMS5003;74353;51.208;0.304;2024-02-16T16:00:24;0;0;
84223;PMS5003;74353;51.208;0.304;2024-02-16T16:02:50;1;1;
84223;PMS5003;74353;51.208;0.304;2024-02-16T16:05:16;2;0;
84223;PMS5003;74353;51.208;0.304;2024-02-16T16:07:44;2;2;
84223;PMS5003;74353;51.208;0.304;2024-02-16T16:10:10;0;0;
84223;PMS5003;74353;51.208;0.304;2024-02-16T16:12:36;0;0;
84223;PMS5003;74353;51.208;0.304;2024-02-16T16:15:03;0;0;
84223;PMS5003;74353;51.208;0.304;2024-02-16T16:17:30;1;1;
84223;PMS5003;74353;51.208;0.304;2024-02-16T16:19:58;1;1;
84223;PMS5003;74353;51.208;0.304;2024-02-16T16:22:24;4;4;
84223;PMS5003;74353;51.208;0.304;2024-02-16T16:24:50;0;0;
84223;PMS5003;74353;51.208;0.304;2024-02-16T16:27:16;1;1;
84223;PMS5003;74353;51.208;0.304;2024-02-16T16:29:43;0;0;
84223;PMS5003;74353;51.208;0.304;2024-02-16T16:32:10;0;0;
84223;PMS5003;74353;51.208;0.304;2024-02-16T16:34:36;1;1;